Time;durP1;ratioP1;P1;durP2;ratioP2;P2;SDS_P1;SDS_P2;PMS_P1;PMS_P2;Temp;Humidity;BMP_temperature;BMP_pressure;BME280_temperature;BME280_humidity;BME280_pressure;Samples;Min_cycle;Max_cycle;Signal;HPM_P1;HPM_P2
2022/07/25 00:36:46;;;;;;;1999.90;999.90;;;;;;;;;;5237603;23;20251;-69
2022/07/25 00:39:31;;;;;;;1999.90;999.90;;;;;;;;;;4991060;28;20239;-69
2022/07/25 00:42:16;;;;;;;1999.90;999.90;;;;;;;;;;4980984;28;20204;-69
2022/07/25 00:45:01;;;;;;;1999.90;999.90;;;;;;;;;;4970368;28;20225;-69
2022/07/25 00:47:46;;;;;;;1999.90;999.90;;;;;;;;;;4953998;29;20200;-70
2022/07/25 00:50:31;;;;;;;1999.90;999.90;;;;;;;;;;4953863;29;20345;-69
2022/07/25 00:53:17;;;;;;;1999.90;999.90;;;;;;;;;;4956603;28;20216;-69
2022/07/25 00:56:03;;;;;;;1999.90;999.90;;;;;;;;;;4973181;28;20315;-69
2022/07/25 00:58:48;;;;;;;1999.90;999.90;;;;;;;;;;4973133;28;20208;-69
2022/07/25 01:01:33;;;;;;;1999.90;999.90;;;;;;;;;;4973222;28;20204;-69
2022/07/25 01:04:18;;;;;;;1999.90;999.90;;;;;;;;;;4973192;28;20208;-69
2022/07/25 01:07:02;;;;;;;1999.90;999.90;;;;;;;;;;4973002;28;20234;-69
2022/07/25 01:09:49;;;;;;;1999.90;999.90;;;;;;;;;;4972875;28;20200;-69
2022/07/25 01:12:43;;;;;;;1999.90;999.90;;;;;;;;;;4972704;28;20180;-69
2022/07/25 01:15:28;;;;;;;1999.90;999.90;;;;;;;;;;4973032;28;20586;-69
2022/07/25 01:18:13;;;;;;;1999.90;999.90;;;;;;;;;;4972786;28;20753;-69
2022/07/25 01:20:59;;;;;;;1999.90;999.90;;;;;;;;;;4972645;28;20216;-69
2022/07/25 01:23:44;;;;;;;1999.90;999.90;;;;;;;;;;4972779;28;20203;-69
2022/07/25 01:26:29;;;;;;;1999.90;999.90;;;;;;;;;;4974035;28;20230;-69
2022/07/25 01:29:14;;;;;;;1999.90;999.90;;;;;;;;;;4976326;28;20283;-69
2022/07/25 01:31:59;;;;;;;1999.90;999.90;;;;;;;;;;4977176;28;20208;-67
2022/07/25 01:34:43;;;;;;;1999.90;999.90;;;;;;;;;;4964795;28;20256;-69
2022/07/25 01:37:30;;;;;;;1999.90;999.90;;;;;;;;;;4966480;28;20231;-69
2022/07/25 01:40:14;;;;;;;1999.90;999.90;;;;;;;;;;4957476;28;20315;-69
2022/07/25 01:42:59;;;;;;;1999.90;999.90;;;;;;;;;;4957583;28;20213;-69
2022/07/25 01:45:44;;;;;;;1999.90;999.90;;;;;;;;;;4957122;28;20231;-69
2022/07/25 01:48:29;;;;;;;1999.90;999.90;;;;;;;;;;4956030;28;20413;-69
2022/07/25 01:51:14;;;;;;;1999.90;999.90;;;;;;;;;;4966501;28;20211;-69
2022/07/25 01:54:00;;;;;;;1999.90;999.90;;;;;;;;;;4975372;28;20287;-69
2022/07/25 01:56:45;;;;;;;1999.90;999.90;;;;;;;;;;4975322;28;20239;-69
2022/07/25 01:59:30;;;;;;;1999.90;999.90;;;;;;;;;;4974788;28;20627;-70
2022/07/25 02:02:15;;;;;;;1999.90;999.90;;;;;;;;;;4975278;28;20741;-69
2022/07/25 02:05:00;;;;;;;1999.90;999.90;;;;;;;;;;4975345;28;20275;-69
2022/07/25 02:07:44;;;;;;;1999.90;999.90;;;;;;;;;;4975055;28;20603;-69
2022/07/25 02:10:31;;;;;;;1999.90;999.90;;;;;;;;;;4957226;28;20205;-70
2022/07/25 02:13:16;;;;;;;1999.90;999.90;;;;;;;;;;4956789;28;20931;-70
2022/07/25 02:16:01;;;;;;;1999.90;999.90;;;;;;;;;;4957042;28;20615;-69
2022/07/25 02:18:46;;;;;;;1999.90;999.90;;;;;;;;;;4956244;29;20215;-69
2022/07/25 02:21:31;;;;;;;1999.90;999.90;;;;;;;;;;4956615;29;20323;-69
2022/07/25 02:24:16;;;;;;;1999.90;999.90;;;;;;;;;;4956825;29;20212;-69
2022/07/25 02:27:02;;;;;;;1999.90;999.90;;;;;;;;;;4964567;28;20224;-69
2022/07/25 02:29:47;;;;;;;1999.90;999.90;;;;;;;;;;4975747;28;20212;-69
2022/07/25 02:32:32;;;;;;;1999.90;999.90;;;;;;;;;;4975469;28;20219;-69
2022/07/25 02:35:17;;;;;;;1999.90;999.90;;;;;;;;;;4962066;28;20240;-69
2022/07/25 02:38:01;;;;;;;1999.90;999.90;;;;;;;;;;4955949;28;20571;-69
2022/07/25 02:40:47;;;;;;;1999.90;999.90;;;;;;;;;;4974579;28;20333;-69
2022/07/25 02:43:34;;;;;;;1999.90;999.90;;;;;;;;;;4975787;28;20213;-69
2022/07/25 02:46:19;;;;;;;1999.90;999.90;;;;;;;;;;4964829;28;20244;-69
2022/07/25 02:49:04;;;;;;;1999.90;999.90;;;;;;;;;;4970877;28;20575;-69
2022/07/25 02:51:49;;;;;;;1999.90;999.90;;;;;;;;;;4965483;28;20204;-68
2022/07/25 02:54:34;;;;;;;1999.90;999.90;;;;;;;;;;4964162;28;20204;-68
2022/07/25 02:57:19;;;;;;;1999.90;999.90;;;;;;;;;;4956219;29;20360;-69
2022/07/25 03:00:07;;;;;;;1999.90;999.90;;;;;;;;;;4955887;29;20224;-69
2022/07/25 03:02:52;;;;;;;1999.90;999.90;;;;;;;;;;4955820;29;20332;-69
2022/07/25 03:05:37;;;;;;;1999.90;999.90;;;;;;;;;;4960775;28;20444;-68
2022/07/25 03:08:22;;;;;;;1999.90;999.90;;;;;;;;;;4964683;28;20212;-69
2022/07/25 03:11:07;;;;;;;1999.90;999.90;;;;;;;;;;4959226;28;20228;-69
2022/07/25 03:13:52;;;;;;;1999.90;999.90;;;;;;;;;;4955590;29;20212;-69
2022/07/25 03:16:38;;;;;;;1999.90;999.90;;;;;;;;;;4955786;29;20312;-69
2022/07/25 03:19:23;;;;;;;1999.90;999.90;;;;;;;;;;4955673;29;20212;-69
2022/07/25 03:22:08;;;;;;;1999.90;999.90;;;;;;;;;;4955698;29;20264;-69
2022/07/25 03:24:53;;;;;;;1999.90;999.90;;;;;;;;;;4960144;28;20881;-69
2022/07/25 03:27:38;;;;;;;1999.90;999.90;;;;;;;;;;4967487;28;20216;-69
2022/07/25 03:30:23;;;;;;;1999.90;999.90;;;;;;;;;;4974885;28;20313;-69
2022/07/25 03:33:10;;;;;;;1999.90;999.90;;;;;;;;;;4963331;28;20292;-69
2022/07/25 03:35:55;;;;;;;1999.90;999.90;;;;;;;;;;4974700;28;20239;-69
2022/07/25 03:38:40;;;;;;;1999.90;999.90;;;;;;;;;;4972743;28;20450;-69
2022/07/25 03:41:26;;;;;;;1999.90;999.90;;;;;;;;;;4963887;28;20227;-69
2022/07/25 03:44:10;;;;;;;1999.90;999.90;;;;;;;;;;4955362;29;20337;-69
2022/07/25 03:46:55;;;;;;;1999.90;999.90;;;;;;;;;;4955186;29;20228;-69
2022/07/25 03:49:42;;;;;;;1999.90;999.90;;;;;;;;;;4954102;28;20212;-69
2022/07/25 03:52:26;;;;;;;1999.90;999.90;;;;;;;;;;4955196;29;20209;-69
2022/07/25 03:55:11;;;;;;;1999.90;999.90;;;;;;;;;;4962390;28;20311;-69
2022/07/25 03:57:56;;;;;;;1999.90;999.90;;;;;;;;;;4967833;28;20520;-69
2022/07/25 04:00:41;;;;;;;1999.90;999.90;;;;;;;;;;4974176;28;20339;-69
2022/07/25 04:03:26;;;;;;;1999.90;999.90;;;;;;;;;;4974123;28;20702;-69
2022/07/25 04:06:12;;;;;;;1999.90;999.90;;;;;;;;;;4974372;28;20579;-69
2022/07/25 04:08:58;;;;;;;1999.90;999.90;;;;;;;;;;4973929;28;20305;-69
2022/07/25 04:11:43;;;;;;;1999.90;999.90;;;;;;;;;;4974080;28;20204;-69
2022/07/25 04:14:28;;;;;;;1999.90;999.90;;;;;;;;;;4970067;28;20228;-69
2022/07/25 04:17:13;;;;;;;1999.90;999.90;;;;;;;;;;4963171;28;20251;-69
2022/07/25 04:19:58;;;;;;;1999.90;999.90;;;;;;;;;;4974108;28;20204;-69
2022/07/25 04:22:44;;;;;;;1999.90;999.90;;;;;;;;;;4974088;28;20223;-69
2022/07/25 04:25:29;;;;;;;1999.90;999.90;;;;;;;;;;4973920;28;20231;-69
2022/07/25 04:28:14;;;;;;;1999.90;999.90;;;;;;;;;;4973557;28;20270;-69
2022/07/25 04:31:01;;;;;;;1999.90;999.90;;;;;;;;;;4972812;28;20462;-69
2022/07/25 04:33:46;;;;;;;1999.90;999.90;;;;;;;;;;4973369;28;20565;-69
2022/07/25 04:36:31;;;;;;;1999.90;999.90;;;;;;;;;;4965059;28;20818;-69
2022/07/25 04:39:17;;;;;;;1999.90;999.90;;;;;;;;;;4973487;28;20228;-69
2022/07/25 04:42:02;;;;;;;1999.90;999.90;;;;;;;;;;4961863;28;20228;-68
2022/07/25 04:44:47;;;;;;;1999.90;999.90;;;;;;;;;;4954211;28;20271;-69
2022/07/25 04:47:32;;;;;;;1999.90;999.90;;;;;;;;;;4954348;29;20223;-69
2022/07/25 04:50:17;;;;;;;1999.90;999.90;;;;;;;;;;4952871;29;20409;-68
2022/07/25 04:53:02;;;;;;;1999.90;999.90;;;;;;;;;;4953971;29;20699;-69
2022/07/25 04:55:49;;;;;;;1999.90;999.90;;;;;;;;;;4966495;28;20278;-69
2022/07/25 04:58:34;;;;;;;1999.90;999.90;;;;;;;;;;4973117;28;20200;-69
2022/07/25 05:01:19;;;;;;;1999.90;999.90;;;;;;;;;;4967002;28;20718;-69
2022/07/25 05:04:04;;;;;;;1999.90;999.90;;;;;;;;;;4961162;28;20207;-68
2022/07/25 05:06:49;;;;;;;1999.90;999.90;;;;;;;;;;4973344;28;20602;-69
2022/07/25 05:09:33;;;;;;;1999.90;999.90;;;;;;;;;;4972989;28;20290;-69
2022/07/25 05:12:20;;;;;;;1999.90;999.90;;;;;;;;;;4973314;28;20211;-69
2022/07/25 05:15:05;;;;;;;1999.90;999.90;;;;;;;;;;4973110;28;20228;-69
2022/07/25 05:17:50;;;;;;;1999.90;999.90;;;;;;;;;;4962466;28;20212;-69
2022/07/25 05:20:35;;;;;;;1999.90;999.90;;;;;;;;;;4961243;28;20264;-69
2022/07/25 05:23:21;;;;;;;1999.90;999.90;;;;;;;;;;4959051;28;20929;-69
2022/07/25 05:26:06;;;;;;;1999.90;999.90;;;;;;;;;;4953863;28;20345;-69
2022/07/25 05:28:52;;;;;;;1999.90;999.90;;;;;;;;;;4953683;28;20580;-69
2022/07/25 05:31:37;;;;;;;1999.90;999.90;;;;;;;;;;4953936;28;20200;-71
2022/07/25 05:34:22;;;;;;;1999.90;999.90;;;;;;;;;;4959801;28;20952;-68
2022/07/25 05:37:07;;;;;;;1999.90;999.90;;;;;;;;;;4967158;28;20207;-68
2022/07/25 05:39:52;;;;;;;1999.90;999.90;;;;;;;;;;4970164;28;20217;-68
2022/07/25 05:42:37;;;;;;;1999.90;999.90;;;;;;;;;;4962583;28;20465;-69
2022/07/25 05:45:23;;;;;;;1999.90;999.90;;;;;;;;;;4959061;28;20236;-69
2022/07/25 05:48:08;;;;;;;1999.90;999.90;;;;;;;;;;4952571;28;20304;-69
2022/07/25 05:50:53;;;;;;;1999.90;999.90;;;;;;;;;;4967621;28;20300;-70
2022/07/25 05:53:38;;;;;;;1999.90;999.90;;;;;;;;;;4970782;28;20204;-69
2022/07/25 05:56:23;;;;;;;1999.90;999.90;;;;;;;;;;4970757;28;20609;-69
2022/07/25 05:59:08;;;;;;;1999.90;999.90;;;;;;;;;;4956063;28;20225;-68
2022/07/25 06:01:54;;;;;;;1999.90;999.90;;;;;;;;;;4965214;28;20230;-68
2022/07/25 06:04:39;;;;;;;1999.90;999.90;;;;;;;;;;4957040;28;20333;-69
2022/07/25 06:07:24;;;;;;;1999.90;999.90;;;;;;;;;;4956318;28;20212;-69
2022/07/25 06:10:09;;;;;;;1999.90;999.90;;;;;;;;;;4952581;28;20631;-69
2022/07/25 06:12:55;;;;;;;1999.90;999.90;;;;;;;;;;4954404;28;20210;-69
2022/07/25 06:15:40;;;;;;;1999.90;999.90;;;;;;;;;;4960937;28;20445;-69
2022/07/25 06:18:27;;;;;;;1999.90;999.90;;;;;;;;;;4961396;28;20221;-69
2022/07/25 06:21:12;;;;;;;1999.90;999.90;;;;;;;;;;4970943;28;20236;-69
2022/07/25 06:23:57;;;;;;;1999.90;999.90;;;;;;;;;;4965461;28;20220;-69
2022/07/25 06:26:42;;;;;;;1999.90;999.90;;;;;;;;;;4967626;28;20586;-69
2022/07/25 06:29:27;;;;;;;1999.90;999.90;;;;;;;;;;4964419;28;20319;-70
2022/07/25 06:32:12;;;;;;;1999.90;999.90;;;;;;;;;;4964638;28;20237;-71
2022/07/25 06:34:58;;;;;;;1999.90;999.90;;;;;;;;;;4974120;28;20403;-68
2022/07/25 06:37:43;;;;;;;1999.90;999.90;;;;;;;;;;4971381;28;20207;-70
2022/07/25 06:40:28;;;;;;;1999.90;999.90;;;;;;;;;;4967400;28;20220;-70
2022/07/25 06:43:13;;;;;;;1999.90;999.90;;;;;;;;;;4965446;28;20215;-70
2022/07/25 06:45:58;;;;;;;1999.90;999.90;;;;;;;;;;4956317;29;20232;-69
2022/07/25 06:48:42;;;;;;;1999.90;999.90;;;;;;;;;;4962606;28;20698;-69
2022/07/25 06:51:29;;;;;;;1999.90;999.90;;;;;;;;;;4960101;28;20215;-70
2022/07/25 06:54:14;;;;;;;1999.90;999.90;;;;;;;;;;4964539;28;20220;-70
2022/07/25 06:56:59;;;;;;;1999.90;999.90;;;;;;;;;;4962045;28;20228;-69
2022/07/25 06:59:44;;;;;;;1999.90;999.90;;;;;;;;;;4959662;28;20727;-70
2022/07/25 07:02:29;;;;;;;1999.90;999.90;;;;;;;;;;4962226;28;20229;-70
2022/07/25 07:05:14;;;;;;;1999.90;999.90;;;;;;;;;;4967253;28;20235;-71
2022/07/25 07:08:01;;;;;;;1999.90;999.90;;;;;;;;;;4963462;28;20244;-70
2022/07/25 07:10:46;;;;;;;1999.90;999.90;;;;;;;;;;4963202;28;20794;-69
2022/07/25 07:13:31;;;;;;;1999.90;999.90;;;;;;;;;;4961254;28;20208;-70
2022/07/25 07:16:16;;;;;;;1999.90;999.90;;;;;;;;;;4956836;28;20239;-69
2022/07/25 07:19:01;;;;;;;1999.90;999.90;;;;;;;;;;4968211;28;20212;-69
2022/07/25 07:21:46;;;;;;;1999.90;999.90;;;;;;;;;;4958484;28;20236;-70
2022/07/25 07:24:32;;;;;;;1999.90;999.90;;;;;;;;;;4960717;28;20690;-69
2022/07/25 07:27:17;;;;;;;1999.90;999.90;;;;;;;;;;4961148;28;20504;-70
2022/07/25 07:30:02;;;;;;;1999.90;999.90;;;;;;;;;;4956771;28;20239;-70
2022/07/25 07:32:47;;;;;;;1999.90;999.90;;;;;;;;;;4965120;28;20205;-68
2022/07/25 07:35:32;;;;;;;1999.90;999.90;;;;;;;;;;4954554;28;20353;-70
2022/07/25 07:38:17;;;;;;;1999.90;999.90;;;;;;;;;;4966388;28;20595;-68
2022/07/25 07:41:04;;;;;;;1999.90;999.90;;;;;;;;;;4968973;28;20283;-68
2022/07/25 07:43:49;;;;;;;1999.90;999.90;;;;;;;;;;4955113;28;20216;-68
2022/07/25 07:46:34;;;;;;;1999.90;999.90;;;;;;;;;;4962608;28;20602;-67
2022/07/25 07:49:18;;;;;;;1999.90;999.90;;;;;;;;;;4959507;28;20278;-67
2022/07/25 07:52:04;;;;;;;1999.90;999.90;;;;;;;;;;4964139;28;20208;-70
2022/07/25 07:57:53;;;;;;;1999.90;999.90;;;;;;;;;;4969356;28;20259;-67
2022/07/25 08:00:39;;;;;;;1999.90;999.90;;;;;;;;;;4966813;28;20228;-67
2022/07/25 08:03:24;;;;;;;1999.90;999.90;;;;;;;;;;4962253;28;20248;-68
2022/07/25 08:06:09;;;;;;;1999.90;999.90;;;;;;;;;;4964001;28;20324;-68
2022/07/25 08:08:54;;;;;;;1999.90;999.90;;;;;;;;;;4957844;28;20204;-68
2022/07/25 08:11:39;;;;;;;1999.90;999.90;;;;;;;;;;4967211;28;20203;-67
2022/07/25 08:14:25;;;;;;;1999.90;999.90;;;;;;;;;;4955397;28;20296;-68
2022/07/25 08:17:10;;;;;;;1999.90;999.90;;;;;;;;;;4959329;28;20304;-67
2022/07/25 08:19:55;;;;;;;1999.90;999.90;;;;;;;;;;4961566;28;20474;-68
2022/07/25 08:22:41;;;;;;;1999.90;999.90;;;;;;;;;;4958477;28;20264;-68
2022/07/25 08:25:26;;;;;;;1999.90;999.90;;;;;;;;;;4962614;28;20606;-68
2022/07/25 08:28:11;;;;;;;1999.90;999.90;;;;;;;;;;4962806;28;20239;-68
2022/07/25 08:30:58;;;;;;;1999.90;999.90;;;;;;;;;;4963769;28;20252;-68
2022/07/25 08:33:43;;;;;;;1999.90;999.90;;;;;;;;;;4969054;28;20211;-68
2022/07/25 08:36:28;;;;;;;1999.90;999.90;;;;;;;;;;4955172;28;20239;-68
2022/07/25 08:39:13;;;;;;;1999.90;999.90;;;;;;;;;;4969815;28;20454;-68
2022/07/25 08:41:58;;;;;;;1999.90;999.90;;;;;;;;;;4957420;28;20223;-68
2022/07/25 08:44:49;;;;;;;1999.90;999.90;;;;;;;;;;4967787;28;20208;-68
2022/07/25 08:47:36;;;;;;;1999.90;999.90;;;;;;;;;;4955289;28;20212;-67
2022/07/25 08:50:22;;;;;;;1999.90;999.90;;;;;;;;;;4963004;28;20208;-67
2022/07/25 08:53:07;;;;;;;1999.90;999.90;;;;;;;;;;4960102;28;20478;-68
2022/07/25 08:55:52;;;;;;;1999.90;999.90;;;;;;;;;;4961561;28;20782;-67
2022/07/25 08:58:37;;;;;;;1999.90;999.90;;;;;;;;;;4961251;28;20287;-67
2022/07/25 09:01:22;;;;;;;1999.90;999.90;;;;;;;;;;4962507;28;20199;-68
2022/07/25 09:04:09;;;;;;;1999.90;999.90;;;;;;;;;;4957123;28;20255;-68
2022/07/25 09:06:54;;;;;;;1999.90;999.90;;;;;;;;;;4960262;28;20379;-68
2022/07/25 09:09:39;;;;;;;1999.90;999.90;;;;;;;;;;4960219;28;20216;-67
2022/07/25 09:12:25;;;;;;;1999.90;999.90;;;;;;;;;;4961307;28;20426;-67
2022/07/25 09:15:10;;;;;;;1999.90;999.90;;;;;;;;;;4952804;28;20236;-67
2022/07/25 09:17:57;;;;;;;1999.90;999.90;;;;;;;;;;4959903;28;20267;-68
2022/07/25 09:20:44;;;;;;;1999.90;999.90;;;;;;;;;;4961013;28;20224;-68
2022/07/25 09:23:30;;;;;;;1999.90;999.90;;;;;;;;;;4958113;28;20635;-67
2022/07/25 09:26:15;;;;;;;1999.90;999.90;;;;;;;;;;4954495;28;20385;-66
2022/07/25 09:29:00;;;;;;;1999.90;999.90;;;;;;;;;;4964057;28;20272;-65
2022/07/25 09:31:45;;;;;;;1999.90;999.90;;;;;;;;;;4956071;28;20692;-66
2022/07/25 09:34:33;;;;;;;1999.90;999.90;;;;;;;;;;4954045;28;20246;-68
2022/07/25 09:37:24;;;;;;;1999.90;999.90;;;;;;;;;;4963093;28;20212;-67
2022/07/25 09:40:14;;;;;;;1999.90;999.90;;;;;;;;;;4958644;28;20219;-68
2022/07/25 09:42:59;;;;;;;1999.90;999.90;;;;;;;;;;4958548;28;20732;-67
2022/07/25 09:45:48;;;;;;;1999.90;999.90;;;;;;;;;;4961544;28;20244;-66
2022/07/25 09:48:34;;;;;;;1999.90;999.90;;;;;;;;;;4966141;28;20706;-68
2022/07/25 09:51:19;;;;;;;1999.90;999.90;;;;;;;;;;4965685;28;20702;-67
2022/07/25 09:54:05;;;;;;;1999.90;999.90;;;;;;;;;;4964414;28;20208;-68
2022/07/25 09:56:52;;;;;;;1999.90;999.90;;;;;;;;;;4966304;28;20303;-67
2022/07/25 09:59:38;;;;;;;1999.90;999.90;;;;;;;;;;4963859;28;20208;-69
2022/07/25 10:02:29;;;;;;;1999.90;999.90;;;;;;;;;;4967547;28;20227;-68
2022/07/25 10:05:15;;;;;;;1999.90;999.90;;;;;;;;;;4966695;28;20250;-68
2022/07/25 10:08:05;;;;;;;1999.90;999.90;;;;;;;;;;4964925;28;20377;-68
2022/07/25 10:10:51;;;;;;;1999.90;999.90;;;;;;;;;;4963416;28;20211;-67
2022/07/25 10:13:38;;;;;;;1999.90;999.90;;;;;;;;;;4971821;28;20320;-68
2022/07/25 10:16:23;;;;;;;1999.90;999.90;;;;;;;;;;4961903;28;20228;-68
2022/07/25 10:19:08;;;;;;;1999.90;999.90;;;;;;;;;;4958641;28;20214;-68
2022/07/25 10:21:54;;;;;;;1999.90;999.90;;;;;;;;;;4955847;28;20630;-68
2022/07/25 10:24:43;;;;;;;1999.90;999.90;;;;;;;;;;4958778;28;20353;-69
2022/07/25 10:27:40;;;;;;;1999.90;999.90;;;;;;;;;;4960483;28;20208;-68
2022/07/25 10:30:26;;;;;;;1999.90;999.90;;;;;;;;;;4960080;28;20714;-68
2022/07/25 10:33:11;;;;;;;1999.90;999.90;;;;;;;;;;4959303;28;20208;-68
2022/07/25 10:36:05;;;;;;;1999.90;999.90;;;;;;;;;;4957898;28;20234;-68
2022/07/25 10:38:55;;;;;;;1999.90;999.90;;;;;;;;;;4960394;28;20959;-68
2022/07/25 10:41:42;;;;;;;1999.90;999.90;;;;;;;;;;4962538;28;20252;-68
2022/07/25 10:44:39;;;;;;;1999.90;999.90;;;;;;;;;;4964307;28;20588;-69
2022/07/25 10:47:25;;;;;;;1999.90;999.90;;;;;;;;;;4962077;28;20216;-69
2022/07/25 10:50:11;;;;;;;1999.90;999.90;;;;;;;;;;4962288;28;20225;-69
2022/07/25 10:52:59;;;;;;;1999.90;999.90;;;;;;;;;;4960601;28;20695;-69
2022/07/25 10:55:47;;;;;;;1999.90;999.90;;;;;;;;;;4965384;28;20754;-68
2022/07/25 10:58:41;;;;;;;1999.90;999.90;;;;;;;;;;4964259;28;20710;-68
2022/07/25 11:01:29;;;;;;;1999.90;999.90;;;;;;;;;;4972673;28;20601;-68
2022/07/25 11:04:15;;;;;;;1999.90;999.90;;;;;;;;;;4971398;28;20403;-69
2022/07/25 11:07:07;;;;;;;1999.90;999.90;;;;;;;;;;4965447;28;20227;-69
2022/07/25 11:09:56;;;;;;;1999.90;999.90;;;;;;;;;;4968906;28;20232;-68
2022/07/25 11:12:44;;;;;;;1999.90;999.90;;;;;;;;;;4964045;28;20305;-69
2022/07/25 11:15:29;;;;;;;1999.90;999.90;;;;;;;;;;4967040;28;20240;-68
2022/07/25 11:18:17;;;;;;;1999.90;999.90;;;;;;;;;;4970298;28;20212;-68
2022/07/25 11:21:03;;;;;;;1999.90;999.90;;;;;;;;;;4962230;28;20207;-68
2022/07/25 11:23:50;;;;;;;1999.90;999.90;;;;;;;;;;4960928;28;20230;-67
2022/07/25 11:26:43;;;;;;;1999.90;999.90;;;;;;;;;;4965267;28;20734;-68
2022/07/25 11:29:28;;;;;;;1999.90;999.90;;;;;;;;;;4968758;28;20215;-67
2022/07/25 11:32:14;;;;;;;1999.90;999.90;;;;;;;;;;4959134;29;20336;-67
2022/07/25 11:35:00;;;;;;;1999.90;999.90;;;;;;;;;;4972160;28;20235;-68
2022/07/25 11:37:47;;;;;;;1999.90;999.90;;;;;;;;;;4978369;28;20208;-68
2022/07/25 11:40:32;;;;;;;1999.90;999.90;;;;;;;;;;4957132;28;20208;-67
2022/07/25 11:43:21;;;;;;;1999.90;999.90;;;;;;;;;;4959609;28;20617;-70
2022/07/25 11:46:07;;;;;;;1999.90;999.90;;;;;;;;;;4954568;28;20645;-67
2022/07/25 11:49:02;;;;;;;1999.90;999.90;;;;;;;;;;4959838;28;20208;-67
2022/07/25 11:51:49;;;;;;;1999.90;999.90;;;;;;;;;;4954640;28;20634;-70
2022/07/25 11:54:34;;;;;;;1999.90;999.90;;;;;;;;;;4969638;28;20555;-67
2022/07/25 11:57:22;;;;;;;1999.90;999.90;;;;;;;;;;4954758;28;20212;-69
2022/07/25 12:00:09;;;;;;;1999.90;999.90;;;;;;;;;;4957880;28;20210;-67
2022/07/25 12:02:54;;;;;;;1999.90;999.90;;;;;;;;;;4957357;28;20228;-68
2022/07/25 12:05:40;;;;;;;1999.90;999.90;;;;;;;;;;4969638;28;20223;-68
2022/07/25 12:08:26;;;;;;;1999.90;999.90;;;;;;;;;;4955123;28;20280;-69
2022/07/25 12:11:18;;;;;;;1999.90;999.90;;;;;;;;;;4954343;28;20571;-69
2022/07/25 12:14:04;;;;;;;1999.90;999.90;;;;;;;;;;4960962;28;20566;-69
2022/07/25 12:16:49;;;;;;;1999.90;999.90;;;;;;;;;;4962948;28;20819;-69
2022/07/25 12:19:34;;;;;;;1999.90;999.90;;;;;;;;;;4954475;29;20232;-69
2022/07/25 12:22:18;;;;;;;1999.90;999.90;;;;;;;;;;4967025;28;20285;-67
2022/07/25 12:25:05;;;;;;;1999.90;999.90;;;;;;;;;;4973904;28;20237;-69
2022/07/25 12:27:51;;;;;;;1999.90;999.90;;;;;;;;;;4973416;28;20203;-68
2022/07/25 12:30:37;;;;;;;1999.90;999.90;;;;;;;;;;4966552;28;20208;-69
2022/07/25 12:33:22;;;;;;;1999.90;999.90;;;;;;;;;;4962844;28;20208;-70
2022/07/25 12:36:07;;;;;;;1999.90;999.90;;;;;;;;;;4960529;28;20252;-71
2022/07/25 12:38:52;;;;;;;1999.90;999.90;;;;;;;;;;4960294;28;20303;-71
2022/07/25 12:41:41;;;;;;;1999.90;999.90;;;;;;;;;;4964426;28;20209;-70
2022/07/25 12:44:26;;;;;;;1999.90;999.90;;;;;;;;;;4962708;28;20271;-71
2022/07/25 12:47:10;;;;;;;1999.90;999.90;;;;;;;;;;4962038;28;20478;-71
2022/07/25 12:49:55;;;;;;;1999.90;999.90;;;;;;;;;;4972966;28;20203;-70
2022/07/25 12:52:41;;;;;;;1999.90;999.90;;;;;;;;;;4968593;28;20705;-70
2022/07/25 12:55:26;;;;;;;1999.90;999.90;;;;;;;;;;4963751;28;20239;-70
2022/07/25 12:58:13;;;;;;;1999.90;999.90;;;;;;;;;;4953896;29;20707;-72
2022/07/25 13:00:59;;;;;;;1999.90;999.90;;;;;;;;;;4961059;28;20697;-70
2022/07/25 13:03:43;;;;;;;1999.90;999.90;;;;;;;;;;4963124;28;20419;-70
2022/07/25 13:06:29;;;;;;;1999.90;999.90;;;;;;;;;;4959688;28;21345;-71
2022/07/25 13:09:14;;;;;;;1999.90;999.90;;;;;;;;;;4957676;28;20339;-72
2022/07/25 13:11:59;;;;;;;1999.90;999.90;;;;;;;;;;4958370;28;20589;-71
2022/07/25 13:14:45;;;;;;;1999.90;999.90;;;;;;;;;;4966531;28;20790;-71
2022/07/25 13:17:31;;;;;;;1999.90;999.90;;;;;;;;;;4961868;28;20212;-70
2022/07/25 13:20:16;;;;;;;1999.90;999.90;;;;;;;;;;4954298;28;20627;-70
2022/07/25 13:23:01;;;;;;;1999.90;999.90;;;;;;;;;;4957503;28;20268;-70
2022/07/25 13:25:46;;;;;;;1999.90;999.90;;;;;;;;;;4957971;28;20284;-71
2022/07/25 13:28:31;;;;;;;1999.90;999.90;;;;;;;;;;4962765;28;20212;-71
2022/07/25 13:31:18;;;;;;;1999.90;999.90;;;;;;;;;;4974633;28;20203;-72
2022/07/25 13:34:04;;;;;;;1999.90;999.90;;;;;;;;;;4976717;28;20204;-72
2022/07/25 13:36:48;;;;;;;1999.90;999.90;;;;;;;;;;4976939;28;20243;-71
2022/07/25 13:39:34;;;;;;;1999.90;999.90;;;;;;;;;;4976857;28;20294;-71
2022/07/25 13:42:19;;;;;;;1999.90;999.90;;;;;;;;;;4972927;28;20794;-71
2022/07/25 13:45:04;;;;;;;1999.90;999.90;;;;;;;;;;4967403;28;20231;-71
2022/07/25 13:47:51;;;;;;;1999.90;999.90;;;;;;;;;;4965041;28;20284;-70
2022/07/25 13:50:36;;;;;;;1999.90;999.90;;;;;;;;;;4957412;29;20208;-71
2022/07/25 13:53:21;;;;;;;1999.90;999.90;;;;;;;;;;4963136;28;20212;-71
2022/07/25 13:56:07;;;;;;;1999.90;999.90;;;;;;;;;;4972946;28;20303;-71
2022/07/25 13:58:51;;;;;;;1999.90;999.90;;;;;;;;;;4976139;28;20590;-71
2022/07/25 14:01:36;;;;;;;1999.90;999.90;;;;;;;;;;4976394;28;20275;-71
2022/07/25 14:04:23;;;;;;;1999.90;999.90;;;;;;;;;;4966527;28;20232;-71
2022/07/25 14:07:08;;;;;;;1999.90;999.90;;;;;;;;;;4976283;28;20560;-70
2022/07/25 14:09:53;;;;;;;1999.90;999.90;;;;;;;;;;4976220;28;20598;-71
2022/07/25 14:12:38;;;;;;;1999.90;999.90;;;;;;;;;;4976375;28;20685;-71
2022/07/25 14:15:24;;;;;;;1999.90;999.90;;;;;;;;;;4974051;28;20414;-70
2022/07/25 14:18:09;;;;;;;1999.90;999.90;;;;;;;;;;4962274;28;20212;-70
2022/07/25 14:20:56;;;;;;;1999.90;999.90;;;;;;;;;;4963096;28;20220;-70
2022/07/25 14:23:41;;;;;;;1999.90;999.90;;;;;;;;;;4963726;28;20240;-70
2022/07/25 14:26:27;;;;;;;1999.90;999.90;;;;;;;;;;4959933;28;20735;-70
2022/07/25 14:29:12;;;;;;;1999.90;999.90;;;;;;;;;;4963320;28;20337;-70
2022/07/25 14:31:57;;;;;;;1999.90;999.90;;;;;;;;;;4961671;28;20229;-70
2022/07/25 14:34:42;;;;;;;1999.90;999.90;;;;;;;;;;4954712;28;20489;-69
2022/07/25 14:37:30;;;;;;;1999.90;999.90;;;;;;;;;;4958049;28;20220;-70
2022/07/25 14:40:15;;;;;;;1999.90;999.90;;;;;;;;;;4973127;28;20215;-71
2022/07/25 14:43:00;;;;;;;1999.90;999.90;;;;;;;;;;4975672;28;20211;-70
2022/07/25 14:45:44;;;;;;;1999.90;999.90;;;;;;;;;;4975675;28;20231;-71
2022/07/25 14:48:29;;;;;;;1999.90;999.90;;;;;;;;;;4964322;28;20216;-70
2022/07/25 14:51:16;;;;;;;1999.90;999.90;;;;;;;;;;4957017;28;20257;-70
2022/07/25 14:54:02;;;;;;;1999.90;999.90;;;;;;;;;;4965498;28;20204;-70
2022/07/25 14:56:48;;;;;;;1999.90;999.90;;;;;;;;;;4961385;28;20341;-70
2022/07/25 14:59:33;;;;;;;1999.90;999.90;;;;;;;;;;4973795;28;20245;-69
2022/07/25 15:02:18;;;;;;;1999.90;999.90;;;;;;;;;;4963049;28;20212;-70
2022/07/25 15:05:03;;;;;;;1999.90;999.90;;;;;;;;;;4955675;28;20232;-70
2022/07/25 15:07:48;;;;;;;1999.90;999.90;;;;;;;;;;4954579;29;20599;-70
2022/07/25 15:10:35;;;;;;;1999.90;999.90;;;;;;;;;;4960926;28;20276;-70
2022/07/25 15:13:20;;;;;;;1999.90;999.90;;;;;;;;;;4957902;28;20333;-70
2022/07/25 15:16:05;;;;;;;1999.90;999.90;;;;;;;;;;4955758;28;20763;-70
2022/07/25 15:18:50;;;;;;;1999.90;999.90;;;;;;;;;;4957691;28;20619;-70
2022/07/25 15:21:35;;;;;;;1999.90;999.90;;;;;;;;;;4963651;28;20699;-70
2022/07/25 15:24:20;;;;;;;1999.90;999.90;;;;;;;;;;4955548;29;20244;-70
2022/07/25 15:27:08;;;;;;;1999.90;999.90;;;;;;;;;;4954903;29;20924;-70
2022/07/25 15:29:54;;;;;;;1999.90;999.90;;;;;;;;;;4966024;28;20213;-70
2022/07/25 15:32:39;;;;;;;1999.90;999.90;;;;;;;;;;4955705;29;20296;-70
2022/07/25 15:35:23;;;;;;;1999.90;999.90;;;;;;;;;;4955366;28;20232;-70
2022/07/25 15:38:08;;;;;;;1999.90;999.90;;;;;;;;;;4960885;28;20204;-70
2022/07/25 15:40:53;;;;;;;1999.90;999.90;;;;;;;;;;4969996;28;20216;-70
2022/07/25 15:43:40;;;;;;;1999.90;999.90;;;;;;;;;;4969512;28;20228;-70
2022/07/25 15:46:25;;;;;;;1999.90;999.90;;;;;;;;;;4964044;28;20608;-71
2022/07/25 15:49:10;;;;;;;1999.90;999.90;;;;;;;;;;4973879;28;20348;-71
2022/07/25 15:51:55;;;;;;;1999.90;999.90;;;;;;;;;;4955238;29;20205;-70
2022/07/25 15:54:39;;;;;;;1999.90;999.90;;;;;;;;;;4955854;29;20562;-69
2022/07/25 15:57:24;;;;;;;1999.90;999.90;;;;;;;;;;4958164;28;20212;-70
2022/07/25 16:00:11;;;;;;;1999.90;999.90;;;;;;;;;;4966140;28;20211;-69
2022/07/25 16:02:56;;;;;;;1999.90;999.90;;;;;;;;;;4968955;28;20211;-69